Hovedside
METAR-TAF:

METAR-TAF

Lufthavner :

Svalbard lufthavn. Longyear

Longyearbyen, Norge

breddegrad: 78-15N, lengdegrad: 015-28E, høyde over havet: 2 m

Gjeldene værobservasjon

Denne rapporten ble laget for 53 minutter siden, klokken 13:50 UTC
Vind 5 kt fra Vest
Temperatur 7°C
Luftfuktighet 81%
Trykk 1018 hPa
Sikt 10 km eller mer
Overskyet i en høyde av 2800 ft

METAR: ENSB 181350Z 27005KT 9999 OVC028 07/04 Q1018 RMK WIND 1400FT 24003KT

Tid: 16:43 (14:43 UTC)

Varsel

Varsel gyldig fra 18. klokken 12 UTC til 19. klokken 12 UTC
Vind 8 kt fra Vest
Sikt 10 km eller mer
Spredte skyer i en høyde av 2000 ft
Midlertidig
fra 18. klokken 18 UTC til 19. klokken 12 UTC
Brutte skyer i en høyde av 1200 ft

TAF: ENSB 1812/1912 26008KT 9999 SCT020 TEMPO 1818/1912 BKN012

Værobservasjoner og værvarsel for over 4000 flyplasser (METAR- og TAF-rapporter).

Tilgjengelige stasjoner er representert av de røde og gule prikkene på kartet.

Hold musepekeren over prikken for å se navnet på stasjonen.

Klikk så for å se værobservasjoner og -varsler.

For å forandre kartet kan du klikke på den grønne knappen med svart kryss for å zoome inn, på den grønne knappen med strek for å zoome ut, eller på de grønne pilene for å se tilstøtende kart.


METAR-TAF: